Station Historical Data
Daily Summary for February 1, 2018 Units:  Both    English   Metric
« Previous Day
Next Day »
Daily Weekly Monthly Yearly Custom
  High: Low: Average:
Temperature: 40.1 °F /  4.5 °C 18.6 °F /  -7.4 °C 33.8 °F /  1 °C
Dew Point: 32.1 °F /  0.1 °C 10.9 °F /  -11.7 °C 26.3 °F /  -3.2 °C
Humidity: 82% 64% 74%
Wind Speed: 20.0mph /  32.2km/h - 7.2mph /  11.6km/h
Wind Gust: 27.0mph /  43.5km/h - -
Wind- - WSW
Pressure: 30.07 in /  1018.2 hPa 29.74 in /  1007 hPa -
Precipitation: 0.00 in /  0 mm    
Historical Graphs
 
 
Tabular Data for February 1, 2018
Time Temperature Dew Point Pressure Wind Wind Speed Wind Gust Humidity Rainfall Rate (Hourly)
00:04 39.2 °F /  4 °C 28.0 °F /  -2.2 °C 29.78in /  1008.4hPa WSW 8.0mph /  12.9km/h 16.0mph /  25.7km/h 64% 0.01in /  0.25mm
00:09 39.2 °F /  4 °C 28.0 °F /  -2.2 °C 29.78in /  1008.4hPa WSW 9.0mph /  14.5km/h 18.0mph /  29km/h 64% 0.01in /  0.25mm
00:14 39.1 °F /  3.9 °C 28.3 °F /  -2.1 °C 29.78in /  1008.4hPa WSW 9.0mph /  14.5km/h 18.0mph /  29km/h 65% 0.01in /  0.25mm
00:19 39.0 °F /  3.9 °C 28.2 °F /  -2.1 °C 29.78in /  1008.4hPa WSW 7.0mph /  11.3km/h 14.0mph /  22.5km/h 65% 0.00in /  0mm
00:24 38.8 °F /  3.8 °C 28.4 °F /  -2 °C 29.78in /  1008.4hPa SW 12.0mph /  19.3km/h 14.0mph /  22.5km/h 66% 0.00in /  0mm
00:29 38.7 °F /  3.7 °C 28.3 °F /  -2.1 °C 29.78in /  1008.4hPa SSW 6.0mph /  9.7km/h 14.0mph /  22.5km/h 66% 0.01in /  0.25mm
00:34 38.6 °F /  3.7 °C 28.2 °F /  -2.1 °C 29.78in /  1008.4hPa West 6.0mph /  9.7km/h 12.0mph /  19.3km/h 66% 0.01in /  0.25mm
00:39 38.6 °F /  3.7 °C 28.6 °F /  -1.9 °C 29.79in /  1008.7hPa WSW 8.0mph /  12.9km/h 17.0mph /  27.4km/h 67% 0.01in /  0.25mm
00:49 38.5 °F /  3.6 °C 28.9 °F /  -1.7 °C 29.78in /  1008.4hPa South 10.0mph /  16.1km/h 17.0mph /  27.4km/h 68% 0.01in /  0.25mm
00:54 38.5 °F /  3.6 °C 28.9 °F /  -1.7 °C 29.78in /  1008.4hPa SW 6.0mph /  9.7km/h 15.0mph /  24.1km/h 68% 0.01in /  0.25mm
00:59 38.5 °F /  3.6 °C 28.9 °F /  -1.7 °C 29.78in /  1008.4hPa WSW 6.0mph /  9.7km/h 13.0mph /  20.9km/h 68% 0.02in /  0.51mm
01:04 38.4 °F /  3.6 °C 28.8 °F /  -1.8 °C 29.78in /  1008.4hPa SW 7.0mph /  11.3km/h 17.0mph /  27.4km/h 68% 0.02in /  0.51mm
01:09 38.4 °F /  3.6 °C 29.1 °F /  -1.6 °C 29.78in /  1008.4hPa West 4.0mph /  6.4km/h 14.0mph /  22.5km/h 69% 0.02in /  0.51mm
01:14 38.3 °F /  3.5 °C 29.0 °F /  -1.7 °C 29.78in /  1008.4hPa WSW 8.0mph /  12.9km/h 15.0mph /  24.1km/h 69% 0.02in /  0.51mm
01:19 38.3 °F /  3.5 °C 29.0 °F /  -1.7 °C 29.78in /  1008.4hPa WSW 8.0mph /  12.9km/h 15.0mph /  24.1km/h 69% 0.02in /  0.51mm
01:24 38.2 °F /  3.4 °C 29.3 °F /  -1.5 °C 29.78in /  1008.4hPa WSW 7.0mph /  11.3km/h 15.0mph /  24.1km/h 70% 0.02in /  0.51mm
01:29 38.0 °F /  3.3 °C 29.1 °F /  -1.6 °C 29.78in /  1008.4hPa SW 14.0mph /  22.5km/h 16.0mph /  25.7km/h 70% 0.01in /  0.25mm
01:34 38.0 °F /  3.3 °C 29.1 °F /  -1.6 °C 29.78in /  1008.4hPa West 9.0mph /  14.5km/h 17.0mph /  27.4km/h 70% 0.01in /  0.25mm
01:39 37.8 °F /  3.2 °C 28.9 °F /  -1.7 °C 29.78in /  1008.4hPa WSW 7.0mph /  11.3km/h 16.0mph /  25.7km/h 70% 0.01in /  0.25mm
01:44 37.7 °F /  3.2 °C 29.1 °F /  -1.6 °C 29.78in /  1008.4hPa WSW 8.0mph /  12.9km/h 16.0mph /  25.7km/h 71% 0.02in /  0.51mm
01:49 37.6 °F /  3.1 °C 29.0 °F /  -1.7 °C 29.78in /  1008.4hPa SW 9.0mph /  14.5km/h 14.0mph /  22.5km/h 71% 0.02in /  0.51mm
01:54 37.6 °F /  3.1 °C 29.0 °F /  -1.7 °C 29.78in /  1008.4hPa WSW 8.0mph /  12.9km/h 14.0mph /  22.5km/h 71% 0.02in /  0.51mm
01:59 37.4 °F /  3 °C 29.2 °F /  -1.6 °C 29.78in /  1008.4hPa WSW 5.0mph /  8km/h 16.0mph /  25.7km/h 72% 0.01in /  0.25mm
02:04 37.3 °F /  2.9 °C 29.1 °F /  -1.6 °C 29.78in /  1008.4hPa West 8.0mph /  12.9km/h 14.0mph /  22.5km/h 72% 0.01in /  0.25mm
02:09 37.3 °F /  2.9 °C 29.1 °F /  -1.6 °C 29.78in /  1008.4hPa WSW 5.0mph /  8km/h 12.0mph /  19.3km/h 72% 0.01in /  0.25mm
02:19 37.1 °F /  2.8 °C 29.2 °F /  -1.6 °C 29.78in /  1008.4hPa WSW 8.0mph /  12.9km/h 15.0mph /  24.1km/h 73% 0.01in /  0.25mm
02:24 37.0 °F /  2.8 °C 29.1 °F /  -1.6 °C 29.78in /  1008.4hPa WSW 6.0mph /  9.7km/h 13.0mph /  20.9km/h 73% 0.01in /  0.25mm
02:29 36.9 °F /  2.7 °C 29.1 °F /  -1.6 °C 29.78in /  1008.4hPa SW 6.0mph /  9.7km/h 13.0mph /  20.9km/h 73% 0.01in /  0.25mm
02:39 36.7 °F /  2.6 °C 29.2 °F /  -1.6 °C 29.77in /  1008hPa SW 6.0mph /  9.7km/h 13.0mph /  20.9km/h 74% 0.01in /  0.25mm
02:44 36.7 °F /  2.6 °C 29.2 °F /  -1.6 °C 29.78in /  1008.4hPa WSW 4.0mph /  6.4km/h 12.0mph /  19.3km/h 74% 0.01in /  0.25mm
02:49 36.6 °F /  2.6 °C 29.4 °F /  -1.4 °C 29.79in /  1008.7hPa WSW 4.0mph /  6.4km/h 11.0mph /  17.7km/h 75% 0.01in /  0.25mm
02:54 36.4 °F /  2.4 °C 29.2 °F /  -1.6 °C 29.79in /  1008.7hPa WSW 6.0mph /  9.7km/h 11.0mph /  17.7km/h 75% 0.01in /  0.25mm
02:59 36.4 °F /  2.4 °C 29.2 °F /  -1.6 °C 29.79in /  1008.7hPa WSW 6.0mph /  9.7km/h 11.0mph /  17.7km/h 75% 0.01in /  0.25mm
03:04 36.2 °F /  2.3 °C 29.0 °F /  -1.7 °C 29.79in /  1008.7hPa WSW 6.0mph /  9.7km/h 11.0mph /  17.7km/h 75% 0.01in /  0.25mm
03:09 36.1 °F /  2.3 °C 28.9 °F /  -1.7 °C 29.79in /  1008.7hPa WSW 6.0mph /  9.7km/h 11.0mph /  17.7km/h 75% 0.01in /  0.25mm
03:14 36.0 °F /  2.2 °C 28.8 °F /  -1.8 °C 29.78in /  1008.4hPa SW 6.0mph /  9.7km/h 11.0mph /  17.7km/h 75% 0.01in /  0.25mm
03:24 35.9 °F /  2.2 °C 29.1 °F /  -1.6 °C 29.78in /  1008.4hPa WSW 6.0mph /  9.7km/h 13.0mph /  20.9km/h 76% 0.01in /  0.25mm
03:29 35.9 °F /  2.2 °C 29.1 °F /  -1.6 °C 29.78in /  1008.4hPa West 8.0mph /  12.9km/h 11.0mph /  17.7km/h 76% 0.01in /  0.25mm
03:34 36.0 °F /  2.2 °C 29.2 °F /  -1.6 °C 29.78in /  1008.4hPa SW 5.0mph /  8km/h 12.0mph /  19.3km/h 76% 0.01in /  0.25mm
03:39 36.1 °F /  2.3 °C 28.9 °F /  -1.7 °C 29.78in /  1008.4hPa WSW 8.0mph /  12.9km/h 11.0mph /  17.7km/h 75% 0.01in /  0.25mm
03:44 36.2 °F /  2.3 °C 29.0 °F /  -1.7 °C 29.78in /  1008.4hPa WSW 6.0mph /  9.7km/h 11.0mph /  17.7km/h 75% 0.00in /  0mm
03:49 36.4 °F /  2.4 °C 29.2 °F /  -1.6 °C 29.78in /  1008.4hPa WSW 7.0mph /  11.3km/h 15.0mph /  24.1km/h 75% 0.00in /  0mm
03:54 36.6 °F /  2.6 °C 29.4 °F /  -1.4 °C 29.77in /  1008hPa West 6.0mph /  9.7km/h 15.0mph /  24.1km/h 75% 0.00in /  0mm
03:59 36.8 °F /  2.7 °C 29.6 °F /  -1.3 °C 29.77in /  1008hPa SW 8.0mph /  12.9km/h 11.0mph /  17.7km/h 75% 0.00in /  0mm
04:04 36.7 °F /  2.6 °C 29.2 °F /  -1.6 °C 29.77in /  1008hPa WSW 6.0mph /  9.7km/h 14.0mph /  22.5km/h 74% 0.00in /  0mm
04:09 36.8 °F /  2.7 °C 29.3 °F /  -1.5 °C 29.77in /  1008hPa WSW 7.0mph /  11.3km/h 15.0mph /  24.1km/h 74% 0.00in /  0mm
04:14 36.9 °F /  2.7 °C 29.4 °F /  -1.4 °C 29.77in /  1008hPa SW 7.0mph /  11.3km/h 15.0mph /  24.1km/h 74% 0.00in /  0mm
04:19 36.8 °F /  2.7 °C 29.6 °F /  -1.3 °C 29.77in /  1008hPa SW 7.0mph /  11.3km/h 14.0mph /  22.5km/h 75% 0.00in /  0mm
04:24 36.6 °F /  2.6 °C 29.4 °F /  -1.4 °C 29.77in /  1008hPa SW 8.0mph /  12.9km/h 14.0mph /  22.5km/h 75% 0.00in /  0mm
04:29 36.4 °F /  2.4 °C 29.6 °F /  -1.3 °C 29.77in /  1008hPa SW 8.0mph /  12.9km/h 12.0mph /  19.3km/h 76% 0.00in /  0mm
04:34 36.2 °F /  2.3 °C 29.4 °F /  -1.4 °C 29.77in /  1008hPa South 5.0mph /  8km/h 11.0mph /  17.7km/h 76% 0.00in /  0mm
04:39 36.1 °F /  2.3 °C 29.6 °F /  -1.3 °C 29.77in /  1008hPa SW 6.0mph /  9.7km/h 11.0mph /  17.7km/h 77% 0.00in /  0mm
04:44 36.1 °F /  2.3 °C 29.6 °F /  -1.3 °C 29.77in /  1008hPa SW 7.0mph /  11.3km/h 11.0mph /  17.7km/h 77% 0.00in /  0mm
04:49 36.1 °F /  2.3 °C 29.6 °F /  -1.3 °C 29.77in /  1008hPa SW 7.0mph /  11.3km/h 16.0mph /  25.7km/h 77% 0.00in /  0mm
04:54 36.1 °F /  2.3 °C 29.6 °F /  -1.3 °C 29.77in /  1008hPa WSW 10.0mph /  16.1km/h 11.0mph /  17.7km/h 77% 0.00in /  0mm
04:59 36.2 °F /  2.3 °C 29.7 °F /  -1.3 °C 29.77in /  1008hPa SW 6.0mph /  9.7km/h 13.0mph /  20.9km/h 77% 0.00in /  0mm
05:04 36.2 °F /  2.3 °C 29.4 °F /  -1.4 °C 29.77in /  1008hPa SW 7.0mph /  11.3km/h 12.0mph /  19.3km/h 76% 0.00in /  0mm
05:09 36.3 °F /  2.4 °C 29.5 °F /  -1.4 °C 29.77in /  1008hPa SW 7.0mph /  11.3km/h 17.0mph /  27.4km/h 76% 0.00in /  0mm
05:14 36.3 °F /  2.4 °C 29.5 °F /  -1.4 °C 29.77in /  1008hPa SW 8.0mph /  12.9km/h 17.0mph /  27.4km/h 76% 0.01in /  0.25mm
05:19 36.3 °F /  2.4 °C 29.5 °F /  -1.4 °C 29.77in /  1008hPa SW 7.0mph /  11.3km/h 12.0mph /  19.3km/h 76% 0.01in /  0.25mm
05:24 36.2 °F /  2.3 °C 29.7 °F /  -1.3 °C 29.78in /  1008.4hPa SW 7.0mph /  11.3km/h 12.0mph /  19.3km/h 77% 0.01in /  0.25mm
05:29 36.2 °F /  2.3 °C 29.7 °F /  -1.3 °C 29.77in /  1008hPa SW 3.0mph /  4.8km/h 12.0mph /  19.3km/h 77% 0.01in /  0.25mm
05:34 36.1 °F /  2.3 °C 29.6 °F /  -1.3 °C 29.77in /  1008hPa SW 5.0mph /  8km/h 12.0mph /  19.3km/h 77% 0.01in /  0.25mm
05:39 35.8 °F /  2.1 °C 29.3 °F /  -1.5 °C 29.77in /  1008hPa WSW 4.0mph /  6.4km/h 7.0mph /  11.3km/h 77% 0.01in /  0.25mm
05:44 35.6 °F /  2 °C 29.1 °F /  -1.6 °C 29.77in /  1008hPa SSW 3.0mph /  4.8km/h 8.0mph /  12.9km/h 77% 0.01in /  0.25mm
05:49 35.5 °F /  1.9 °C 29.0 °F /  -1.7 °C 29.77in /  1008hPa SW 4.0mph /  6.4km/h 6.0mph /  9.7km/h 77% 0.01in /  0.25mm
05:54 35.5 °F /  1.9 °C 29.3 °F /  -1.5 °C 29.78in /  1008.4hPa SSW 3.0mph /  4.8km/h 8.0mph /  12.9km/h 78% 0.01in /  0.25mm
05:59 35.6 °F /  2 °C 29.4 °F /  -1.4 °C 29.77in /  1008hPa SW 4.0mph /  6.4km/h 7.0mph /  11.3km/h 78% 0.01in /  0.25mm
06:04 35.7 °F /  2.1 °C 29.5 °F /  -1.4 °C 29.77in /  1008hPa SW 4.0mph /  6.4km/h 10.0mph /  16.1km/h 78% 0.01in /  0.25mm
06:09 35.9 °F /  2.2 °C 29.7 °F /  -1.3 °C 29.77in /  1008hPa SSW 5.0mph /  8km/h 8.0mph /  12.9km/h 78% 0.01in /  0.25mm
06:14 36.1 °F /  2.3 °C 29.9 °F /  -1.2 °C 29.77in /  1008hPa SSW 4.0mph /  6.4km/h 12.0mph /  19.3km/h 78% 0.00in /  0mm
06:19 36.4 °F /  2.4 °C 30.2 °F /  -1 °C 29.77in /  1008hPa SW 3.0mph /  4.8km/h 11.0mph /  17.7km/h 78% 0.00in /  0mm
06:24 36.5 °F /  2.5 °C 30.3 °F /  -0.9 °C 29.76in /  1007.7hPa SSW 5.0mph /  8km/h 12.0mph /  19.3km/h 78% 0.00in /  0mm
06:29 36.6 °F /  2.6 °C 30.1 °F /  -1.1 °C 29.76in /  1007.7hPa SSW 5.0mph /  8km/h 9.0mph /  14.5km/h 77% 0.00in /  0mm
06:39 36.6 °F /  2.6 °C 30.1 °F /  -1.1 °C 29.76in /  1007.7hPa SSW 4.0mph /  6.4km/h 9.0mph /  14.5km/h 77% 0.00in /  0mm
06:44 36.7 °F /  2.6 °C 30.2 °F /  -1 °C 29.76in /  1007.7hPa SSW 4.0mph /  6.4km/h 11.0mph /  17.7km/h 77% 0.00in /  0mm
06:49 36.7 °F /  2.6 °C 30.2 °F /  -1 °C 29.77in /  1008hPa SW 4.0mph /  6.4km/h 7.0mph /  11.3km/h 77% 0.00in /  0mm
06:54 36.8 °F /  2.7 °C 30.3 °F /  -0.9 °C 29.77in /  1008hPa SSW 4.0mph /  6.4km/h 9.0mph /  14.5km/h 77% 0.00in /  0mm
06:59 36.9 °F /  2.7 °C 30.4 °F /  -0.9 °C 29.77in /  1008hPa South 7.0mph /  11.3km/h 11.0mph /  17.7km/h 77% 0.00in /  0mm
07:04 37.0 °F /  2.8 °C 30.5 °F /  -0.8 °C 29.77in /  1008hPa SSW 5.0mph /  8km/h 11.0mph /  17.7km/h 77% 0.00in /  0mm
07:09 37.0 °F /  2.8 °C 30.5 °F /  -0.8 °C 29.76in /  1007.7hPa SSW 4.0mph /  6.4km/h 10.0mph /  16.1km/h 77% 0.00in /  0mm
07:14 37.1 °F /  2.8 °C 30.6 °F /  -0.8 °C 29.77in /  1008hPa SSW 5.0mph /  8km/h 10.0mph /  16.1km/h 77% 0.00in /  0mm
07:19 37.1 °F /  2.8 °C 30.6 °F /  -0.8 °C 29.77in /  1008hPa SW 5.0mph /  8km/h 10.0mph /  16.1km/h 77% 0.00in /  0mm
07:24 37.0 °F /  2.8 °C 30.5 °F /  -0.8 °C 29.77in /  1008hPa SW 3.0mph /  4.8km/h 9.0mph /  14.5km/h 77% 0.00in /  0mm
07:29 37.0 °F /  2.8 °C 30.5 °F /  -0.8 °C 29.77in /  1008hPa SW 11.0mph /  17.7km/h 13.0mph /  20.9km/h 77% 0.00in /  0mm
07:34 37.0 °F /  2.8 °C 30.5 °F /  -0.8 °C 29.76in /  1007.7hPa SSE 6.0mph /  9.7km/h 11.0mph /  17.7km/h 77% 0.00in /  0mm
07:39 37.0 °F /  2.8 °C 30.5 °F /  -0.8 °C 29.76in /  1007.7hPa SW 5.0mph /  8km/h 12.0mph /  19.3km/h 77% 0.00in /  0mm
07:44 37.0 °F /  2.8 °C 30.5 °F /  -0.8 °C 29.76in /  1007.7hPa SW 5.0mph /  8km/h 9.0mph /  14.5km/h 77% 0.00in /  0mm
07:49 37.1 °F /  2.8 °C 30.6 °F /  -0.8 °C 29.76in /  1007.7hPa SW 5.0mph /  8km/h 11.0mph /  17.7km/h 77% 0.00in /  0mm
07:54 37.1 °F /  2.8 °C 30.6 °F /  -0.8 °C 29.76in /  1007.7hPa SW 5.0mph /  8km/h 11.0mph /  17.7km/h 77% 0.00in /  0mm
08:04 37.3 °F /  2.9 °C 30.7 °F /  -0.7 °C 29.76in /  1007.7hPa SW 8.0mph /  12.9km/h 12.0mph /  19.3km/h 77% 0.01in /  0.25mm
08:09 37.4 °F /  3 °C 30.8 °F /  -0.7 °C 29.76in /  1007.7hPa SSW 6.0mph /  9.7km/h 12.0mph /  19.3km/h 77% 0.01in /  0.25mm
08:14 37.5 °F /  3.1 °C 30.9 °F /  -0.6 °C 29.76in /  1007.7hPa SE 8.0mph /  12.9km/h 11.0mph /  17.7km/h 77% 0.01in /  0.25mm
08:19 37.7 °F /  3.2 °C 30.8 °F /  -0.7 °C 29.76in /  1007.7hPa SSW 6.0mph /  9.7km/h 12.0mph /  19.3km/h 76% 0.01in /  0.25mm
08:24 37.8 °F /  3.2 °C 30.9 °F /  -0.6 °C 29.76in /  1007.7hPa WSW 5.0mph /  8km/h 9.0mph /  14.5km/h 76% 0.01in /  0.25mm
08:29 37.9 °F /  3.3 °C 31.0 °F /  -0.6 °C 29.76in /  1007.7hPa SW 6.0mph /  9.7km/h 12.0mph /  19.3km/h 76% 0.01in /  0.25mm
08:34 38.0 °F /  3.3 °C 31.1 °F /  -0.5 °C 29.76in /  1007.7hPa SSW 7.0mph /  11.3km/h 13.0mph /  20.9km/h 76% 0.01in /  0.25mm
08:39 38.0 °F /  3.3 °C 31.1 °F /  -0.5 °C 29.77in /  1008hPa SW 9.0mph /  14.5km/h 13.0mph /  20.9km/h 76% 0.01in /  0.25mm
08:44 38.1 °F /  3.4 °C 30.9 °F /  -0.6 °C 29.76in /  1007.7hPa SSW 7.0mph /  11.3km/h 14.0mph /  22.5km/h 75% 0.01in /  0.25mm
08:49 38.3 °F /  3.5 °C 31.1 °F /  -0.5 °C 29.77in /  1008hPa SSW 7.0mph /  11.3km/h 14.0mph /  22.5km/h 75% 0.01in /  0.25mm
08:54 38.3 °F /  3.5 °C 31.1 °F /  -0.5 °C 29.77in /  1008hPa SSW 6.0mph /  9.7km/h 13.0mph /  20.9km/h 75% 0.01in /  0.25mm
08:59 38.5 °F /  3.6 °C 31.3 °F /  -0.4 °C 29.77in /  1008hPa SSW 5.0mph /  8km/h 11.0mph /  17.7km/h 75% 0.01in /  0.25mm
09:04 38.7 °F /  3.7 °C 31.5 °F /  -0.3 °C 29.76in /  1007.7hPa SSW 5.0mph /  8km/h 10.0mph /  16.1km/h 75% 0.00in /  0mm
09:09 38.8 °F /  3.8 °C 31.2 °F /  -0.4 °C 29.77in /  1008hPa SW 13.0mph /  20.9km/h 15.0mph /  24.1km/h 74% 0.00in /  0mm
09:14 38.9 °F /  3.8 °C 31.3 °F /  -0.4 °C 29.76in /  1007.7hPa SSW 6.0mph /  9.7km/h 15.0mph /  24.1km/h 74% 0.00in /  0mm
09:19 39.1 °F /  3.9 °C 31.5 °F /  -0.3 °C 29.76in /  1007.7hPa SSW 6.0mph /  9.7km/h 15.0mph /  24.1km/h 74% 0.00in /  0mm
09:24 39.4 °F /  4.1 °C 31.5 °F /  -0.3 °C 29.76in /  1007.7hPa SW 3.0mph /  4.8km/h 17.0mph /  27.4km/h 73% 0.00in /  0mm
09:29 39.7 °F /  4.3 °C 31.8 °F /  -0.1 °C 29.76in /  1007.7hPa South 6.0mph /  9.7km/h 18.0mph /  29km/h 73% 0.00in /  0mm
09:34 39.7 °F /  4.3 °C 31.8 °F /  -0.1 °C 29.77in /  1008hPa SSW 6.0mph /  9.7km/h 10.0mph /  16.1km/h 73% 0.00in /  0mm
09:39 39.7 °F /  4.3 °C 31.4 °F /  -0.3 °C 29.77in /  1008hPa SW 8.0mph /  12.9km/h 11.0mph /  17.7km/h 72% 0.00in /  0mm
09:44 39.7 °F /  4.3 °C 31.4 °F /  -0.3 °C 29.77in /  1008hPa SW 7.0mph /  11.3km/h 14.0mph /  22.5km/h 72% 0.00in /  0mm
09:49 39.7 °F /  4.3 °C 31.4 °F /  -0.3 °C 29.77in /  1008hPa SW 7.0mph /  11.3km/h 14.0mph /  22.5km/h 72% 0.00in /  0mm
09:54 39.6 °F /  4.2 °C 31.7 °F /  -0.2 °C 29.76in /  1007.7hPa SSW 7.0mph /  11.3km/h 14.0mph /  22.5km/h 73% 0.00in /  0mm
09:59 39.8 °F /  4.3 °C 31.5 °F /  -0.3 °C 29.76in /  1007.7hPa SSW 7.0mph /  11.3km/h 14.0mph /  22.5km/h 72% 0.00in /  0mm
10:04 39.7 °F /  4.3 °C 31.4 °F /  -0.3 °C 29.77in /  1008hPa SE 8.0mph /  12.9km/h 15.0mph /  24.1km/h 72% 0.00in /  0mm
10:09 39.7 °F /  4.3 °C 31.4 °F /  -0.3 °C 29.77in /  1008hPa SW 6.0mph /  9.7km/h 12.0mph /  19.3km/h 72% 0.00in /  0mm
10:14 39.7 °F /  4.3 °C 31.8 °F /  -0.1 °C 29.77in /  1008hPa SSW 3.0mph /  4.8km/h 14.0mph /  22.5km/h 73% 0.00in /  0mm
10:19 39.9 °F /  4.4 °C 31.6 °F /  -0.2 °C 29.76in /  1007.7hPa SW 7.0mph /  11.3km/h 14.0mph /  22.5km/h 72% 0.00in /  0mm
10:24 39.9 °F /  4.4 °C 31.6 °F /  -0.2 °C 29.76in /  1007.7hPa SW 5.0mph /  8km/h 12.0mph /  19.3km/h 72% 0.00in /  0mm
10:29 39.8 °F /  4.3 °C 31.8 °F /  -0.1 °C 29.77in /  1008hPa SW 7.0mph /  11.3km/h 12.0mph /  19.3km/h 73% 0.00in /  0mm
10:34 39.9 °F /  4.4 °C 31.9 °F /  -0.1 °C 29.77in /  1008hPa SW 4.0mph /  6.4km/h 10.0mph /  16.1km/h 73% 0.00in /  0mm
10:39 39.9 °F /  4.4 °C 31.9 °F /  -0.1 °C 29.76in /  1007.7hPa SW 8.0mph /  12.9km/h 16.0mph /  25.7km/h 73% 0.00in /  0mm
10:44 40.0 °F /  4.4 °C 31.7 °F /  -0.2 °C 29.76in /  1007.7hPa WSW 8.0mph /  12.9km/h 13.0mph /  20.9km/h 72% 0.00in /  0mm
10:49 40.0 °F /  4.4 °C 31.7 °F /  -0.2 °C 29.76in /  1007.7hPa SW 7.0mph /  11.3km/h 13.0mph /  20.9km/h 72% 0.00in /  0mm
10:54 40.1 °F /  4.5 °C 31.8 °F /  -0.1 °C 29.76in /  1007.7hPa SW 7.0mph /  11.3km/h 16.0mph /  25.7km/h 72% 0.00in /  0mm
10:59 40.1 °F /  4.5 °C 31.8 °F /  -0.1 °C 29.76in /  1007.7hPa SW 8.0mph /  12.9km/h 16.0mph /  25.7km/h 72% 0.00in /  0mm
11:04 40.1 °F /  4.5 °C 31.8 °F /  -0.1 °C 29.77in /  1008hPa West 13.0mph /  20.9km/h 21.0mph /  33.8km/h 72% 0.00in /  0mm
11:09 40.0 °F /  4.4 °C 31.7 °F /  -0.2 °C 29.77in /  1008hPa WSW 10.0mph /  16.1km/h 21.0mph /  33.8km/h 72% 0.00in /  0mm
11:14 40.0 °F /  4.4 °C 31.7 °F /  -0.2 °C 29.77in /  1008hPa WSW 10.0mph /  16.1km/h 19.0mph /  30.6km/h 72% 0.00in /  0mm
11:19 40.0 °F /  4.4 °C 31.7 °F /  -0.2 °C 29.77in /  1008hPa WSW 8.0mph /  12.9km/h 19.0mph /  30.6km/h 72% 0.00in /  0mm
11:24 40.1 °F /  4.5 °C 31.8 °F /  -0.1 °C 29.77in /  1008hPa WSW 8.0mph /  12.9km/h 19.0mph /  30.6km/h 72% 0.00in /  0mm
11:29 39.8 °F /  4.3 °C 31.5 °F /  -0.3 °C 29.78in /  1008.4hPa WSW 10.0mph /  16.1km/h 19.0mph /  30.6km/h 72% 0.00in /  0mm
11:34 39.6 °F /  4.2 °C 31.3 °F /  -0.4 °C 29.77in /  1008hPa WSW 9.0mph /  14.5km/h 17.0mph /  27.4km/h 72% 0.00in /  0mm
11:39 39.4 °F /  4.1 °C 31.5 °F /  -0.3 °C 29.77in /  1008hPa West 10.0mph /  16.1km/h 14.0mph /  22.5km/h 73% 0.00in /  0mm
11:44 39.5 °F /  4.2 °C 31.6 °F /  -0.2 °C 29.76in /  1007.7hPa WSW 4.0mph /  6.4km/h 16.0mph /  25.7km/h 73% 0.00in /  0mm
11:49 39.8 °F /  4.3 °C 31.8 °F /  -0.1 °C 29.76in /  1007.7hPa WSW 7.0mph /  11.3km/h 16.0mph /  25.7km/h 73% 0.00in /  0mm
11:54 40.0 °F /  4.4 °C 32.0 °F /  0 °C 29.76in /  1007.7hPa WSW 7.0mph /  11.3km/h 15.0mph /  24.1km/h 73% 0.00in /  0mm
11:59 39.7 °F /  4.3 °C 31.8 °F /  -0.1 °C 29.76in /  1007.7hPa WSW 8.0mph /  12.9km/h 15.0mph /  24.1km/h 73% 0.00in /  0mm
12:04 39.5 °F /  4.2 °C 31.9 °F /  -0.1 °C 29.75in /  1007.3hPa WSW 8.0mph /  12.9km/h 17.0mph /  27.4km/h 74% 0.00in /  0mm
12:09 39.6 °F /  4.2 °C 32.0 °F /  0 °C 29.76in /  1007.7hPa WSW 9.0mph /  14.5km/h 17.0mph /  27.4km/h 74% 0.00in /  0mm
12:14 39.5 °F /  4.2 °C 31.9 °F /  -0.1 °C 29.76in /  1007.7hPa SW 13.0mph /  20.9km/h 19.0mph /  30.6km/h 74% 0.00in /  0mm
12:19 39.6 °F /  4.2 °C 32.0 °F /  0 °C 29.75in /  1007.3hPa SW 14.0mph /  22.5km/h 21.0mph /  33.8km/h 74% 0.00in /  0mm
12:24 39.6 °F /  4.2 °C 31.7 °F /  -0.2 °C 29.75in /  1007.3hPa WSW 11.0mph /  17.7km/h 21.0mph /  33.8km/h 73% 0.00in /  0mm
12:29 39.7 °F /  4.3 °C 32.1 °F /  0.1 °C 29.74in /  1007hPa SW 11.0mph /  17.7km/h 13.0mph /  20.9km/h 74% 0.00in /  0mm
12:34 39.9 °F /  4.4 °C 31.9 °F /  -0.1 °C 29.75in /  1007.3hPa WSW 7.0mph /  11.3km/h 20.0mph /  32.2km/h 73% 0.00in /  0mm
12:39 40.0 °F /  4.4 °C 32.0 °F /  0 °C 29.75in /  1007.3hPa West 10.0mph /  16.1km/h 21.0mph /  33.8km/h 73% 0.00in /  0mm
12:44 39.8 °F /  4.3 °C 31.8 °F /  -0.1 °C 29.75in /  1007.3hPa SW 13.0mph /  20.9km/h 23.0mph /  37km/h 73% 0.00in /  0mm
12:49 39.5 °F /  4.2 °C 31.6 °F /  -0.2 °C 29.74in /  1007hPa WSW 13.0mph /  20.9km/h 19.0mph /  30.6km/h 73% 0.00in /  0mm
12:54 39.6 °F /  4.2 °C 31.7 °F /  -0.2 °C 29.74in /  1007hPa SW 9.0mph /  14.5km/h 22.0mph /  35.4km/h 73% 0.00in /  0mm
12:59 39.5 °F /  4.2 °C 31.6 °F /  -0.2 °C 29.74in /  1007hPa WSW 11.0mph /  17.7km/h 22.0mph /  35.4km/h 73% 0.00in /  0mm
13:04 39.3 °F /  4.1 °C 31.7 °F /  -0.2 °C 29.74in /  1007hPa WSW 12.0mph /  19.3km/h 24.0mph /  38.6km/h 74% 0.00in /  0mm
13:09 39.4 °F /  4.1 °C 31.8 °F /  -0.1 °C 29.74in /  1007hPa WSW 13.0mph /  20.9km/h 26.0mph /  41.8km/h 74% 0.00in /  0mm
13:14 39.3 °F /  4.1 °C 31.7 °F /  -0.2 °C 29.74in /  1007hPa WSW 13.0mph /  20.9km/h 26.0mph /  41.8km/h 74% 0.00in /  0mm
13:19 39.0 °F /  3.9 °C 31.4 °F /  -0.3 °C 29.74in /  1007hPa West 11.0mph /  17.7km/h 27.0mph /  43.5km/h 74% 0.00in /  0mm
13:24 38.9 °F /  3.8 °C 31.6 °F /  -0.2 °C 29.75in /  1007.3hPa WSW 20.0mph /  32.2km/h 24.0mph /  38.6km/h 75% 0.00in /  0mm
13:29 38.8 °F /  3.8 °C 31.6 °F /  -0.2 °C 29.75in /  1007.3hPa West 18.0mph /  29km/h 22.0mph /  35.4km/h 75% 0.00in /  0mm
13:34 38.5 °F /  3.6 °C 30.9 °F /  -0.6 °C 29.75in /  1007.3hPa WSW 14.0mph /  22.5km/h 26.0mph /  41.8km/h 74% 0.00in /  0mm
13:39 38.3 °F /  3.5 °C 31.1 °F /  -0.5 °C 29.74in /  1007hPa WSW 14.0mph /  22.5km/h 26.0mph /  41.8km/h 75% 0.00in /  0mm
13:44 38.3 °F /  3.5 °C 31.1 °F /  -0.5 °C 29.75in /  1007.3hPa WSW 12.0mph /  19.3km/h 26.0mph /  41.8km/h 75% 0.00in /  0mm
13:49 38.2 °F /  3.4 °C 31.0 °F /  -0.6 °C 29.75in /  1007.3hPa SW 10.0mph /  16.1km/h 24.0mph /  38.6km/h 75% 0.00in /  0mm
13:54 38.0 °F /  3.3 °C 30.8 °F /  -0.7 °C 29.75in /  1007.3hPa WSW 16.0mph /  25.7km/h 22.0mph /  35.4km/h 75% 0.00in /  0mm
13:59 38.0 °F /  3.3 °C 30.8 °F /  -0.7 °C 29.75in /  1007.3hPa WSW 18.0mph /  29km/h 24.0mph /  38.6km/h 75% 0.00in /  0mm
14:04 37.7 °F /  3.2 °C 30.8 °F /  -0.7 °C 29.75in /  1007.3hPa WSW 13.0mph /  20.9km/h 24.0mph /  38.6km/h 76% 0.00in /  0mm
14:09 37.7 °F /  3.2 °C 30.8 °F /  -0.7 °C 29.75in /  1007.3hPa WSW 12.0mph /  19.3km/h 24.0mph /  38.6km/h 76% 0.00in /  0mm
14:14 37.8 °F /  3.2 °C 31.2 °F /  -0.4 °C 29.75in /  1007.3hPa WSW 11.0mph /  17.7km/h 21.0mph /  33.8km/h 77% 0.00in /  0mm
14:19 37.8 °F /  3.2 °C 31.2 °F /  -0.4 °C 29.75in /  1007.3hPa WSW 10.0mph /  16.1km/h 19.0mph /  30.6km/h 77% 0.00in /  0mm
14:24 37.8 °F /  3.2 °C 31.2 °F /  -0.4 °C 29.76in /  1007.7hPa WSW 13.0mph /  20.9km/h 17.0mph /  27.4km/h 77% 0.00in /  0mm
14:29 37.7 °F /  3.2 °C 31.1 °F /  -0.5 °C 29.75in /  1007.3hPa West 7.0mph /  11.3km/h 16.0mph /  25.7km/h 77% 0.00in /  0mm
14:34 37.7 °F /  3.2 °C 31.1 °F /  -0.5 °C 29.76in /  1007.7hPa WSW 6.0mph /  9.7km/h 15.0mph /  24.1km/h 77% 0.00in /  0mm
14:39 37.3 °F /  2.9 °C 30.7 °F /  -0.7 °C 29.76in /  1007.7hPa WSW 9.0mph /  14.5km/h 18.0mph /  29km/h 77% 0.00in /  0mm
14:44 37.1 °F /  2.8 °C 30.6 °F /  -0.8 °C 29.76in /  1007.7hPa WSW 9.0mph /  14.5km/h 19.0mph /  30.6km/h 77% 0.00in /  0mm
14:49 36.9 °F /  2.7 °C 30.7 °F /  -0.7 °C 29.76in /  1007.7hPa WSW 9.0mph /  14.5km/h 19.0mph /  30.6km/h 78% 0.00in /  0mm
14:54 36.5 °F /  2.5 °C 30.3 °F /  -0.9 °C 29.77in /  1008hPa WNW 6.0mph /  9.7km/h 17.0mph /  27.4km/h 78% 0.00in /  0mm
14:59 36.4 °F /  2.4 °C 30.5 °F /  -0.8 °C 29.78in /  1008.4hPa SW 6.0mph /  9.7km/h 18.0mph /  29km/h 79% 0.00in /  0mm
15:04 36.2 °F /  2.3 °C 30.3 °F /  -0.9 °C 29.78in /  1008.4hPa SW 8.0mph /  12.9km/h 19.0mph /  30.6km/h 79% 0.00in /  0mm
15:09 35.9 °F /  2.2 °C 30.0 °F /  -1.1 °C 29.78in /  1008.4hPa SW 10.0mph /  16.1km/h 19.0mph /  30.6km/h 79% 0.00in /  0mm
15:14 35.6 °F /  2 °C 30.0 °F /  -1.1 °C 29.78in /  1008.4hPa SW 10.0mph /  16.1km/h 18.0mph /  29km/h 80% 0.00in /  0mm
15:19 35.4 °F /  1.9 °C 29.8 °F /  -1.2 °C 29.78in /  1008.4hPa WSW 9.0mph /  14.5km/h 18.0mph /  29km/h 80% 0.00in /  0mm
15:24 35.2 °F /  1.8 °C 30.0 °F /  -1.1 °C 29.79in /  1008.7hPa SW 9.0mph /  14.5km/h 17.0mph /  27.4km/h 81% 0.00in /  0mm
15:29 35.1 °F /  1.7 °C 29.9 °F /  -1.2 °C 29.79in /  1008.7hPa SW 12.0mph /  19.3km/h 19.0mph /  30.6km/h 81% 0.00in /  0mm
15:34 35.0 °F /  1.7 °C 29.8 °F /  -1.2 °C 29.79in /  1008.7hPa SW 11.0mph /  17.7km/h 20.0mph /  32.2km/h 81% 0.00in /  0mm
15:39 35.0 °F /  1.7 °C 29.8 °F /  -1.2 °C 29.79in /  1008.7hPa SW 10.0mph /  16.1km/h 18.0mph /  29km/h 81% 0.00in /  0mm
15:44 34.8 °F /  1.6 °C 29.6 °F /  -1.3 °C 29.79in /  1008.7hPa WSW 9.0mph /  14.5km/h 21.0mph /  33.8km/h 81% 0.00in /  0mm
15:49 34.8 °F /  1.6 °C 29.6 °F /  -1.3 °C 29.80in /  1009hPa SW 9.0mph /  14.5km/h 21.0mph /  33.8km/h 81% 0.00in /  0mm
15:54 34.6 °F /  1.4 °C 29.7 °F /  -1.3 °C 29.80in /  1009hPa SW 10.0mph /  16.1km/h 19.0mph /  30.6km/h 82% 0.00in /  0mm
15:59 34.4 °F /  1.3 °C 29.5 °F /  -1.4 °C 29.80in /  1009hPa WSW 10.0mph /  16.1km/h 18.0mph /  29km/h 82% 0.00in /  0mm
16:04 34.4 °F /  1.3 °C 29.5 °F /  -1.4 °C 29.80in /  1009hPa SW 9.0mph /  14.5km/h 18.0mph /  29km/h 82% 0.00in /  0mm
16:09 34.4 °F /  1.3 °C 29.5 °F /  -1.4 °C 29.81in /  1009.4hPa WSW 8.0mph /  12.9km/h 14.0mph /  22.5km/h 82% 0.00in /  0mm
16:14 34.4 °F /  1.3 °C 29.5 °F /  -1.4 °C 29.80in /  1009hPa WSW 8.0mph /  12.9km/h 18.0mph /  29km/h 82% 0.00in /  0mm
16:19 34.3 °F /  1.3 °C 29.4 °F /  -1.4 °C 29.80in /  1009hPa SW 6.0mph /  9.7km/h 19.0mph /  30.6km/h 82% 0.00in /  0mm
16:29 34.3 °F /  1.3 °C 29.4 °F /  -1.4 °C 29.80in /  1009hPa SW 11.0mph /  17.7km/h 17.0mph /  27.4km/h 82% 0.00in /  0mm
16:34 34.3 °F /  1.3 °C 29.4 °F /  -1.4 °C 29.81in /  1009.4hPa WSW 10.0mph /  16.1km/h 21.0mph /  33.8km/h 82% 0.00in /  0mm
16:39 34.3 °F /  1.3 °C 29.4 °F /  -1.4 °C 29.81in /  1009.4hPa WSW 13.0mph /  20.9km/h 20.0mph /  32.2km/h 82% 0.00in /  0mm
16:44 34.3 °F /  1.3 °C 29.1 °F /  -1.6 °C 29.82in /  1009.7hPa WSW 9.0mph /  14.5km/h 20.0mph /  32.2km/h 81% 0.00in /  0mm
16:49 34.3 °F /  1.3 °C 29.1 °F /  -1.6 °C 29.82in /  1009.7hPa WSW 9.0mph /  14.5km/h 19.0mph /  30.6km/h 81% 0.00in /  0mm
16:54 34.3 °F /  1.3 °C 29.1 °F /  -1.6 °C 29.82in /  1009.7hPa WSW 9.0mph /  14.5km/h 19.0mph /  30.6km/h 81% 0.00in /  0mm
16:59 34.2 °F /  1.2 °C 29.0 °F /  -1.7 °C 29.82in /  1009.7hPa WSW 9.0mph /  14.5km/h 18.0mph /  29km/h 81% 0.00in /  0mm
17:04 34.2 °F /  1.2 °C 29.0 °F /  -1.7 °C 29.82in /  1009.7hPa WSW 9.0mph /  14.5km/h 15.0mph /  24.1km/h 81% 0.00in /  0mm
17:09 34.2 °F /  1.2 °C 29.0 °F /  -1.7 °C 29.83in /  1010hPa WSW 7.0mph /  11.3km/h 20.0mph /  32.2km/h 81% 0.00in /  0mm
17:14 34.2 °F /  1.2 °C 29.0 °F /  -1.7 °C 29.83in /  1010hPa WSW 9.0mph /  14.5km/h 20.0mph /  32.2km/h 81% 0.00in /  0mm
17:19 34.3 °F /  1.3 °C 29.1 °F /  -1.6 °C 29.83in /  1010hPa WSW 7.0mph /  11.3km/h 15.0mph /  24.1km/h 81% 0.00in /  0mm
17:24 34.3 °F /  1.3 °C 28.8 °F /  -1.8 °C 29.84in /  1010.4hPa West 7.0mph /  11.3km/h 14.0mph /  22.5km/h 80% 0.00in /  0mm
17:29 33.4 °F /  0.8 °C 27.0 °F /  -2.8 °C 29.85in /  1010.7hPa NW 14.0mph /  22.5km/h 15.0mph /  24.1km/h 77% 0.00in /  0mm
17:34 32.5 °F /  0.3 °C 25.8 °F /  -3.4 °C 29.86in /  1011.1hPa NW 9.0mph /  14.5km/h 15.0mph /  24.1km/h 76% 0.00in /  0mm
17:39 31.7 °F /  -0.2 °C 24.7 °F /  -4.1 °C 29.86in /  1011.1hPa WNW 8.0mph /  12.9km/h 15.0mph /  24.1km/h 75% 0.00in /  0mm
17:44 31.3 °F /  -0.4 °C 24.3 °F /  -4.3 °C 29.87in /  1011.4hPa NW 4.0mph /  6.4km/h 13.0mph /  20.9km/h 75% 0.00in /  0mm
17:49 31.0 °F /  -0.6 °C 24.3 °F /  -4.3 °C 29.86in /  1011.1hPa NW 6.0mph /  9.7km/h 16.0mph /  25.7km/h 76% 0.00in /  0mm
17:54 30.5 °F /  -0.8 °C 23.5 °F /  -4.7 °C 29.87in /  1011.4hPa NNW 7.0mph /  11.3km/h 16.0mph /  25.7km/h 75% 0.00in /  0mm
17:59 29.9 °F /  -1.2 °C 23.3 °F /  -4.8 °C 29.88in /  1011.7hPa NNW 7.0mph /  11.3km/h 14.0mph /  22.5km/h 76% 0.00in /  0mm
18:04 29.7 °F /  -1.3 °C 23.1 °F /  -4.9 °C 29.88in /  1011.7hPa NNW 4.0mph /  6.4km/h 11.0mph /  17.7km/h 76% 0.00in /  0mm
18:09 29.5 °F /  -1.4 °C 22.9 °F /  -5.1 °C 29.89in /  1012.1hPa NNW 4.0mph /  6.4km/h 8.0mph /  12.9km/h 76% 0.00in /  0mm
18:14 29.4 °F /  -1.4 °C 23.1 °F /  -4.9 °C 29.89in /  1012.1hPa North 7.0mph /  11.3km/h 9.0mph /  14.5km/h 77% 0.00in /  0mm
18:19 29.1 °F /  -1.6 °C 22.5 °F /  -5.3 °C 29.89in /  1012.1hPa North 5.0mph /  8km/h 11.0mph /  17.7km/h 76% 0.00in /  0mm
18:24 28.8 °F /  -1.8 °C 22.2 °F /  -5.4 °C 29.88in /  1011.7hPa NNW 5.0mph /  8km/h 12.0mph /  19.3km/h 76% 0.00in /  0mm
18:29 28.7 °F /  -1.8 °C 22.1 °F /  -5.5 °C 29.89in /  1012.1hPa NNW 5.0mph /  8km/h 12.0mph /  19.3km/h 76% 0.00in /  0mm
18:34 28.5 °F /  -1.9 °C 21.9 °F /  -5.6 °C 29.90in /  1012.4hPa NNW 8.0mph /  12.9km/h 11.0mph /  17.7km/h 76% 0.00in /  0mm
18:39 28.2 °F /  -2.1 °C 21.3 °F /  -5.9 °C 29.91in /  1012.8hPa NNW 3.0mph /  4.8km/h 12.0mph /  19.3km/h 75% 0.00in /  0mm
18:44 28.0 °F /  -2.2 °C 20.8 °F /  -6.2 °C 29.91in /  1012.8hPa North 7.0mph /  11.3km/h 9.0mph /  14.5km/h 74% 0.00in /  0mm
18:49 27.8 °F /  -2.3 °C 19.9 °F /  -6.7 °C 29.92in /  1013.1hPa NNW 5.0mph /  8km/h 16.0mph /  25.7km/h 72% 0.00in /  0mm
18:54 27.5 °F /  -2.5 °C 19.7 °F /  -6.8 °C 29.92in /  1013.1hPa NNW 6.0mph /  9.7km/h 16.0mph /  25.7km/h 72% 0.00in /  0mm
18:59 27.4 °F /  -2.6 °C 19.6 °F /  -6.9 °C 29.91in /  1012.8hPa NW 5.0mph /  8km/h 12.0mph /  19.3km/h 72% 0.00in /  0mm
19:04 27.1 °F /  -2.7 °C 19.3 °F /  -7.1 °C 29.91in /  1012.8hPa NW 5.0mph /  8km/h 14.0mph /  22.5km/h 72% 0.00in /  0mm
19:09 26.9 °F /  -2.8 °C 19.1 °F /  -7.2 °C 29.91in /  1012.8hPa NW 4.0mph /  6.4km/h 13.0mph /  20.9km/h 72% 0.00in /  0mm
19:14 26.7 °F /  -2.9 °C 18.9 °F /  -7.3 °C 29.91in /  1012.8hPa WNW 9.0mph /  14.5km/h 11.0mph /  17.7km/h 72% 0.00in /  0mm
19:19 26.6 °F /  -3 °C 18.5 °F /  -7.5 °C 29.93in /  1013.4hPa WSW 3.0mph /  4.8km/h 9.0mph /  14.5km/h 71% 0.00in /  0mm
19:24 26.6 °F /  -3 °C 18.1 °F /  -7.7 °C 29.93in /  1013.4hPa NW 4.0mph /  6.4km/h 12.0mph /  19.3km/h 70% 0.00in /  0mm
19:29 26.7 °F /  -2.9 °C 18.2 °F /  -7.7 °C 29.94in /  1013.8hPa WNW 5.0mph /  8km/h 12.0mph /  19.3km/h 70% 0.00in /  0mm
19:34 26.7 °F /  -2.9 °C 18.2 °F /  -7.7 °C 29.94in /  1013.8hPa NNW 6.0mph /  9.7km/h 11.0mph /  17.7km/h 70% 0.00in /  0mm
19:39 26.7 °F /  -2.9 °C 17.9 °F /  -7.8 °C 29.95in /  1014.1hPa NNW 4.0mph /  6.4km/h 12.0mph /  19.3km/h 69% 0.00in /  0mm
19:44 26.7 °F /  -2.9 °C 17.9 °F /  -7.8 °C 29.96in /  1014.4hPa West 5.0mph /  8km/h 8.0mph /  12.9km/h 69% 0.00in /  0mm
19:49 26.7 °F /  -2.9 °C 17.9 °F /  -7.8 °C 29.96in /  1014.4hPa NNW 7.0mph /  11.3km/h 12.0mph /  19.3km/h 69% 0.00in /  0mm
19:54 26.7 °F /  -2.9 °C 17.9 °F /  -7.8 °C 29.96in /  1014.4hPa WNW 4.0mph /  6.4km/h 9.0mph /  14.5km/h 69% 0.00in /  0mm
19:59 26.6 °F /  -3 °C 17.8 °F /  -7.9 °C 29.96in /  1014.4hPa NW 4.0mph /  6.4km/h 11.0mph /  17.7km/h 69% 0.00in /  0mm
20:04 26.4 °F /  -3.1 °C 17.6 °F /  -8 °C 29.96in /  1014.4hPa NW 5.0mph /  8km/h 13.0mph /  20.9km/h 69% 0.00in /  0mm
20:09 26.3 °F /  -3.2 °C 17.5 °F /  -8.1 °C 29.96in /  1014.4hPa NNW 5.0mph /  8km/h 13.0mph /  20.9km/h 69% 0.00in /  0mm
20:14 26.0 °F /  -3.3 °C 17.2 °F /  -8.2 °C 29.97in /  1014.8hPa NNW 3.0mph /  4.8km/h 11.0mph /  17.7km/h 69% 0.00in /  0mm
20:19 25.8 °F /  -3.4 °C 17.0 °F /  -8.3 °C 29.98in /  1015.1hPa NW 6.0mph /  9.7km/h 11.0mph /  17.7km/h 69% 0.00in /  0mm
20:24 25.6 °F /  -3.6 °C 16.8 °F /  -8.4 °C 29.98in /  1015.1hPa NW 5.0mph /  8km/h 12.0mph /  19.3km/h 69% 0.00in /  0mm
20:29 25.4 °F /  -3.7 °C 16.6 °F /  -8.6 °C 29.98in /  1015.1hPa NW 4.0mph /  6.4km/h 13.0mph /  20.9km/h 69% 0.00in /  0mm
20:34 25.3 °F /  -3.7 °C 16.5 °F /  -8.6 °C 29.99in /  1015.5hPa NW 8.0mph /  12.9km/h 14.0mph /  22.5km/h 69% 0.00in /  0mm
20:39 24.9 °F /  -3.9 °C 16.5 °F /  -8.6 °C 29.99in /  1015.5hPa NW 4.0mph /  6.4km/h 11.0mph /  17.7km/h 70% 0.00in /  0mm
20:44 24.7 °F /  -4.1 °C 16.3 °F /  -8.7 °C 30.00in /  1015.8hPa NW 5.0mph /  8km/h 14.0mph /  22.5km/h 70% 0.00in /  0mm
20:49 24.5 °F /  -4.2 °C 16.4 °F /  -8.7 °C 30.00in /  1015.8hPa WNW 7.0mph /  11.3km/h 11.0mph /  17.7km/h 71% 0.00in /  0mm
20:54 24.3 °F /  -4.3 °C 16.2 °F /  -8.8 °C 30.00in /  1015.8hPa NW 6.0mph /  9.7km/h 15.0mph /  24.1km/h 71% 0.00in /  0mm
20:59 24.0 °F /  -4.4 °C 16.0 °F /  -8.9 °C 30.00in /  1015.8hPa NW 8.0mph /  12.9km/h 12.0mph /  19.3km/h 71% 0.00in /  0mm
21:04 23.7 °F /  -4.6 °C 15.0 °F /  -9.4 °C 30.00in /  1015.8hPa NW 7.0mph /  11.3km/h 16.0mph /  25.7km/h 69% 0.00in /  0mm
21:09 23.3 °F /  -4.8 °C 14.3 °F /  -9.8 °C 30.00in /  1015.8hPa NW 7.0mph /  11.3km/h 16.0mph /  25.7km/h 68% 0.00in /  0mm
21:14 23.1 °F /  -4.9 °C 13.8 °F /  -10.1 °C 30.00in /  1015.8hPa NW 7.0mph /  11.3km/h 15.0mph /  24.1km/h 67% 0.00in /  0mm
21:19 22.9 °F /  -5.1 °C 13.6 °F /  -10.2 °C 30.00in /  1015.8hPa NW 7.0mph /  11.3km/h 14.0mph /  22.5km/h 67% 0.00in /  0mm
21:24 22.7 °F /  -5.2 °C 13.7 °F /  -10.2 °C 30.01in /  1016.1hPa WNW 6.0mph /  9.7km/h 14.0mph /  22.5km/h 68% 0.00in /  0mm
21:29 22.6 °F /  -5.2 °C 13.6 °F /  -10.2 °C 30.01in /  1016.1hPa NNW 2.0mph /  3.2km/h 12.0mph /  19.3km/h 68% 0.00in /  0mm
21:34 22.5 °F /  -5.3 °C 13.5 °F /  -10.3 °C 30.02in /  1016.5hPa NW 5.0mph /  8km/h 12.0mph /  19.3km/h 68% 0.00in /  0mm
21:39 22.2 °F /  -5.4 °C 13.2 °F /  -10.4 °C 30.02in /  1016.5hPa NNW 5.0mph /  8km/h 13.0mph /  20.9km/h 68% 0.00in /  0mm
21:44 21.9 °F /  -5.6 °C 13.0 °F /  -10.6 °C 30.02in /  1016.5hPa NW 4.0mph /  6.4km/h 10.0mph /  16.1km/h 68% 0.00in /  0mm
21:49 21.8 °F /  -5.7 °C 13.2 °F /  -10.4 °C 30.03in /  1016.8hPa WNW 3.0mph /  4.8km/h 9.0mph /  14.5km/h 69% 0.00in /  0mm
21:54 21.6 °F /  -5.8 °C 12.7 °F /  -10.7 °C 30.02in /  1016.5hPa West 4.0mph /  6.4km/h 15.0mph /  24.1km/h 68% 0.00in /  0mm
21:59 21.4 °F /  -5.9 °C 12.1 °F /  -11.1 °C 30.03in /  1016.8hPa NW 4.0mph /  6.4km/h 12.0mph /  19.3km/h 67% 0.00in /  0mm
22:04 21.2 °F /  -6 °C 11.6 °F /  -11.3 °C 30.03in /  1016.8hPa WNW 7.0mph /  11.3km/h 12.0mph /  19.3km/h 66% 0.00in /  0mm
22:09 21.1 °F /  -6.1 °C 11.5 °F /  -11.4 °C 30.04in /  1017.2hPa WNW 6.0mph /  9.7km/h 12.0mph /  19.3km/h 66% 0.00in /  0mm
22:14 21.0 °F /  -6.1 °C 11.4 °F /  -11.4 °C 30.04in /  1017.2hPa WNW 5.0mph /  8km/h 12.0mph /  19.3km/h 66% 0.00in /  0mm
22:19 20.9 °F /  -6.2 °C 11.7 °F /  -11.3 °C 30.05in /  1017.5hPa WNW 4.0mph /  6.4km/h 10.0mph /  16.1km/h 67% 0.00in /  0mm
22:24 20.8 °F /  -6.2 °C 11.6 °F /  -11.3 °C 30.05in /  1017.5hPa WNW 5.0mph /  8km/h 10.0mph /  16.1km/h 67% 0.00in /  0mm
22:29 20.6 °F /  -6.3 °C 11.0 °F /  -11.7 °C 30.05in /  1017.5hPa WNW 3.0mph /  4.8km/h 12.0mph /  19.3km/h 66% 0.00in /  0mm
22:34 20.5 °F /  -6.4 °C 10.9 °F /  -11.7 °C 30.05in /  1017.5hPa WNW 3.0mph /  4.8km/h 10.0mph /  16.1km/h 66% 0.00in /  0mm
22:39 20.5 °F /  -6.4 °C 11.3 °F /  -11.5 °C 30.05in /  1017.5hPa NW 4.0mph /  6.4km/h 10.0mph /  16.1km/h 67% 0.00in /  0mm
22:44 20.3 °F /  -6.5 °C 11.4 °F /  -11.4 °C 30.06in /  1017.8hPa NW 5.0mph /  8km/h 13.0mph /  20.9km/h 68% 0.00in /  0mm
22:49 20.2 °F /  -6.6 °C 11.7 °F /  -11.3 °C 30.06in /  1017.8hPa NW 10.0mph /  16.1km/h 12.0mph /  19.3km/h 69% 0.00in /  0mm
22:54 20.0 °F /  -6.7 °C 11.5 °F /  -11.4 °C 30.06in /  1017.8hPa WNW 12.0mph /  19.3km/h 13.0mph /  20.9km/h 69% 0.00in /  0mm
22:59 19.9 °F /  -6.7 °C 11.4 °F /  -11.4 °C 30.06in /  1017.8hPa NW 8.0mph /  12.9km/h 13.0mph /  20.9km/h 69% 0.00in /  0mm
23:04 19.8 °F /  -6.8 °C 11.3 °F /  -11.5 °C 30.06in /  1017.8hPa WNW 8.0mph /  12.9km/h 11.0mph /  17.7km/h 69% 0.00in /  0mm
23:09 19.6 °F /  -6.9 °C 11.1 °F /  -11.6 °C 30.06in /  1017.8hPa West 5.0mph /  8km/h 10.0mph /  16.1km/h 69% 0.00in /  0mm
23:14 19.5 °F /  -6.9 °C 11.0 °F /  -11.7 °C 30.06in /  1017.8hPa West 6.0mph /  9.7km/h 10.0mph /  16.1km/h 69% 0.00in /  0mm
23:19 19.5 °F /  -6.9 °C 11.3 °F /  -11.5 °C 30.06in /  1017.8hPa West 5.0mph /  8km/h 10.0mph /  16.1km/h 70% 0.00in /  0mm
23:24 19.4 °F /  -7 °C 11.5 °F /  -11.4 °C 30.06in /  1017.8hPa WNW 3.0mph /  4.8km/h 10.0mph /  16.1km/h 71% 0.00in /  0mm
23:29 19.4 °F /  -7 °C 11.8 °F /  -11.2 °C 30.06in /  1017.8hPa West 3.0mph /  4.8km/h 9.0mph /  14.5km/h 72% 0.00in /  0mm
23:34 19.3 °F /  -7.1 °C 11.7 °F /  -11.3 °C 30.07in /  1018.2hPa West 4.0mph /  6.4km/h 11.0mph /  17.7km/h 72% 0.00in /  0mm
23:39 19.2 °F /  -7.1 °C 11.6 °F /  -11.3 °C 30.07in /  1018.2hPa WNW 6.0mph /  9.7km/h 12.0mph /  19.3km/h 72% 0.00in /  0mm
23:44 19.1 °F /  -7.2 °C 11.9 °F /  -11.2 °C 30.06in /  1017.8hPa WNW 6.0mph /  9.7km/h 12.0mph /  19.3km/h 73% 0.00in /  0mm
23:49 18.9 °F /  -7.3 °C 11.7 °F /  -11.3 °C 30.06in /  1017.8hPa West 6.0mph /  9.7km/h 14.0mph /  22.5km/h 73% 0.00in /  0mm
23:54 18.7 °F /  -7.4 °C 11.5 °F /  -11.4 °C 30.06in /  1017.8hPa WNW 7.0mph /  11.3km/h 14.0mph /  22.5km/h 73% 0.00in /  0mm
23:59 18.6 °F /  -7.4 °C 11.7 °F /  -11.3 °C 30.06in /  1017.8hPa WNW 7.0mph /  11.3km/h 13.0mph /  20.9km/h 74% 0.00in /  0mm
Buffalo, New York, USA
Compliments of Weather Underground - 2.5 mb